Accueil
METAR-TAF:

METAR-TAF

Aéroports :

La Rochelle, France

Aéroport de La Rochelle - île de Ré

latitude: 46-10-45N, longitude: 1-11-43W, altitude: 23 m

Observation

Le bulletin a été fait il y a 30 minutes, à 00:00 UTC
Vent 8 kt de nord/nord-est
Température 1°C
Humidité 80%
Pression 1018 hPa
Visibilité: 5000 m
brume

METAR: LFBH 220000Z AUTO 02008KT 5000 BR NSC 01/M02 Q1018 NOSIG

Heure: 01:30 (00:30 UTC)

Prévision

Le bulletin a été fait il y a 1 heure et 30 minutes, à 23:00 UTC
Prévision valable du 22 à 00 UTC au 22 à 24 UTC
Vent 10 kt de nord/nord-est
Visibilité: 7000 m

TAF: LFBH 212300Z 2200/2224 03010KT 7000 NSC

Observations et prévisions météorologiques de plus de 4000 aéroports (messages METAR et TAF).

Les stations disponibles sont représentées par des disques jaunes et rouges sur la carte.

Passer la souris dessus pour voir le nom de la station.

Cliquer dessus pour voir les observations et prévisions météorologiques.

Pour changer de carte: cliquez sur les boutons verts avec une croix noire pour zoomer, sur le bouton vert avec un tiret pour effectuer un zoom arrière, ou sur les flèches vertes pour les cartes adjacentes.


METAR-TAF: